Time;durP1;ratioP1;P1;durP2;ratioP2;P2;SDS_P1;SDS_P2;PMS_P1;PMS_P2;Temp;Humidity;BMP_temperature;BMP_pressure;BME280_temperature;BME280_humidity;BME280_pressure;Samples;Min_cycle;Max_cycle;Signal;HPM_P1;HPM_P2
2022/08/07 00:00:09;;;;;;;8.50;4.40;;;14.30;99.90;;;;;;5092194;28;20037;-69
2022/08/07 00:02:35;;;;;;;6.28;4.07;;;14.30;99.90;;;;;;5092711;28;20595;-69
2022/08/07 00:05:01;;;;;;;8.80;4.40;;;14.30;99.90;;;;;;5093434;28;20079;-69
2022/08/07 00:07:26;;;;;;;5.93;4.10;;;14.30;99.90;;;;;;5076052;28;20404;-69
2022/08/07 00:09:52;;;;;;;9.50;4.10;;;14.20;99.90;;;;;;5093090;28;20066;-70
2022/08/07 00:12:17;;;;;;;5.80;3.90;;;14.20;99.90;;;;;;5092982;28;20039;-69
2022/08/07 00:14:43;;;;;;;8.25;4.57;;;14.20;99.90;;;;;;5093226;28;20063;-69
2022/08/07 00:17:09;;;;;;;10.07;4.55;;;14.20;99.90;;;;;;5092330;28;20191;-69
2022/08/07 00:19:34;;;;;;;7.82;4.45;;;14.00;99.90;;;;;;5091516;28;20047;-69
2022/08/07 00:22:00;;;;;;;7.93;4.65;;;14.00;99.90;;;;;;5092635;28;20039;-69
2022/08/07 00:24:26;;;;;;;7.45;4.57;;;14.00;99.90;;;;;;5093481;28;20109;-69
2022/08/07 00:26:51;;;;;;;6.18;4.18;;;14.00;99.90;;;;;;5091180;28;20048;-69
2022/08/07 00:29:18;;;;;;;6.95;4.43;;;14.10;99.90;;;;;;5092697;28;20591;-69
2022/08/07 00:31:44;;;;;;;6.28;4.30;;;14.00;99.90;;;;;;5091125;28;20079;-69
2022/08/07 00:34:09;;;;;;;7.15;4.00;;;14.00;99.90;;;;;;5090712;28;20504;-69
2022/08/07 00:36:37;;;;;;;6.80;3.97;;;14.00;99.90;;;;;;5093176;28;20042;-69
2022/08/07 00:39:02;;;;;;;6.47;4.32;;;14.00;99.90;;;;;;5092658;28;20040;-69
2022/08/07 00:41:32;;;;;;;6.35;4.28;;;14.00;99.90;;;;;;5096793;28;20077;-69
2022/08/07 00:43:58;;;;;;;8.70;5.10;;;14.00;99.90;;;;;;5095257;28;20468;-69
2022/08/07 00:46:23;;;;;;;7.30;4.65;;;13.90;99.90;;;;;;5097048;28;20032;-69
2022/08/07 00:48:49;;;;;;;7.90;4.43;;;13.90;99.90;;;;;;5095154;28;20048;-69
2022/08/07 00:51:14;;;;;;;7.95;4.93;;;13.80;99.90;;;;;;5096910;28;20062;-69
2022/08/07 00:53:40;;;;;;;7.28;5.03;;;13.80;99.90;;;;;;5096004;28;20131;-69
2022/08/07 00:56:06;;;;;;;6.07;4.68;;;13.80;99.90;;;;;;5095887;28;20228;-69
2022/08/07 00:58:32;;;;;;;6.22;4.72;;;13.70;99.90;;;;;;5096183;28;20040;-69
2022/08/07 01:00:58;;;;;;;7.30;4.78;;;13.70;99.90;;;;;;5101276;28;20095;-69
2022/08/07 01:03:24;;;;;;;6.10;4.03;;;13.80;99.90;;;;;;5103722;28;20036;-69
2022/08/07 01:05:51;;;;;;;6.97;4.68;;;13.80;99.90;;;;;;5078447;28;20070;-69
2022/08/07 01:08:17;;;;;;;6.30;4.50;;;13.70;99.90;;;;;;5095659;28;20048;-69
2022/08/07 01:10:43;;;;;;;6.65;4.45;;;13.70;99.90;;;;;;5094138;28;20538;-69
2022/08/07 01:13:09;;;;;;;6.00;4.40;;;13.60;99.90;;;;;;5094452;28;20043;-69
2022/08/07 01:15:36;;;;;;;6.97;4.97;;;13.50;99.90;;;;;;5094515;28;20051;-69
2022/08/07 01:18:01;;;;;;;8.45;4.57;;;13.50;99.90;;;;;;5094152;28;20046;-69
2022/08/07 01:20:33;;;;;;;7.15;4.75;;;13.40;99.90;;;;;;5095602;28;20063;-69
2022/08/07 01:23:00;;;;;;;5.83;4.43;;;13.30;99.90;;;;;;5094906;28;20040;-69
2022/08/07 01:25:27;;;;;;;9.10;5.22;;;13.30;99.90;;;;;;5095276;28;20404;-70
2022/08/07 01:27:54;;;;;;;12.70;5.53;;;13.30;99.90;;;;;;5078129;28;20044;-69
2022/08/07 01:30:21;;;;;;;8.43;5.47;;;13.10;99.90;;;;;;5096144;28;20036;-69
2022/08/07 01:32:46;;;;;;;8.20;5.43;;;13.00;99.90;;;;;;5095782;28;20123;-69
2022/08/07 01:35:12;;;;;;;9.73;5.65;;;13.10;99.90;;;;;;5094745;28;20071;-69
2022/08/07 01:37:38;;;;;;;10.40;5.22;;;13.10;99.90;;;;;;5096374;28;20032;-69
2022/08/07 01:40:05;;;;;;;9.20;5.35;;;13.10;99.90;;;;;;5096115;28;20032;-69
2022/08/07 01:42:32;;;;;;;9.40;5.80;;;13.20;99.90;;;;;;5096091;28;20044;-69
2022/08/07 01:44:57;;;;;;;11.13;6.43;;;13.00;99.90;;;;;;5096056;28;20043;-69
2022/08/07 01:47:23;;;;;;;10.27;6.28;;;13.00;99.90;;;;;;5096289;28;20107;-69
2022/08/07 01:49:49;;;;;;;8.63;5.68;;;13.00;99.90;;;;;;5096907;28;20079;-69
2022/08/07 01:52:17;;;;;;;9.35;6.32;;;13.20;99.90;;;;;;5094434;28;20070;-69
2022/08/07 01:54:44;;;;;;;7.25;6.03;;;13.00;99.90;;;;;;5096302;28;20058;-69
2022/08/07 01:57:17;;;;;;;9.60;5.88;;;13.00;99.90;;;;;;5094967;28;20036;-69
2022/08/07 01:59:50;;;;;;;7.82;5.72;;;13.20;99.90;;;;;;5095516;28;20040;-69
2022/08/07 02:02:26;;;;;;;8.93;5.25;;;13.30;99.90;;;;;;5095723;28;20341;-69
2022/08/07 02:05:02;;;;;;;8.20;5.57;;;13.40;99.90;;;;;;5094779;28;20047;-69
2022/08/07 02:07:33;;;;;;;7.72;5.22;;;13.40;99.90;;;;;;5096379;28;20466;-69
2022/08/07 02:10:00;;;;;;;8.30;5.07;;;13.50;99.90;;;;;;5095800;28;20047;-69
2022/08/07 02:12:30;;;;;;;7.85;5.35;;;13.30;99.90;;;;;;5100280;28;20047;-69
2022/08/07 02:14:57;;;;;;;7.85;4.95;;;13.30;99.90;;;;;;5101762;28;20046;-69
2022/08/07 02:17:24;;;;;;;11.90;5.68;;;13.30;99.90;;;;;;5095402;28;20047;-69
2022/08/07 02:19:52;;;;;;;7.25;5.50;;;13.10;99.90;;;;;;5096083;28;20062;-69
2022/08/07 02:22:19;;;;;;;9.60;5.32;;;13.20;99.90;;;;;;5093196;28;20040;-69
2022/08/07 02:24:46;;;;;;;8.45;5.38;;;13.10;99.90;;;;;;5093453;28;20040;-69
2022/08/07 02:27:15;;;;;;;10.20;5.18;;;13.10;99.90;;;;;;5095193;28;20040;-69
2022/08/07 02:29:42;;;;;;;7.43;5.65;;;13.20;99.90;;;;;;5094897;28;20077;-69
2022/08/07 02:32:09;;;;;;;9.88;5.57;;;13.20;99.90;;;;;;5093973;28;20044;-69
2022/08/07 02:34:36;;;;;;;10.70;5.65;;;13.10;99.90;;;;;;5093582;28;20039;-69
2022/08/07 02:37:04;;;;;;;8.13;6.03;;;13.20;99.90;;;;;;5094577;28;20522;-69
2022/08/07 02:39:31;;;;;;;7.95;6.10;;;13.20;99.90;;;;;;5095139;28;20488;-69
2022/08/07 02:41:57;;;;;;;9.40;5.22;;;13.20;99.90;;;;;;5094965;28;20048;-69
2022/08/07 02:44:26;;;;;;;10.27;6.05;;;13.30;99.90;;;;;;5094497;28;20500;-69
2022/08/07 02:46:53;;;;;;;8.13;5.63;;;13.30;99.90;;;;;;5095134;28;20041;-69
2022/08/07 02:49:19;;;;;;;7.95;5.25;;;13.20;99.90;;;;;;5095816;28;20036;-69
2022/08/07 02:51:46;;;;;;;8.35;5.60;;;13.10;99.90;;;;;;5095322;28;20050;-69
2022/08/07 02:54:15;;;;;;;8.63;5.60;;;13.00;99.90;;;;;;5096135;28;20047;-69
2022/08/07 02:56:42;;;;;;;8.93;6.00;;;12.90;99.90;;;;;;5094278;28;20126;-69
2022/08/07 02:59:11;;;;;;;9.00;6.15;;;13.00;99.90;;;;;;5093509;28;20040;-69
2022/08/07 03:01:38;;;;;;;6.72;5.25;;;13.00;99.90;;;;;;5093978;28;20080;-69
2022/08/07 03:04:08;;;;;;;9.25;6.15;;;13.10;99.90;;;;;;5093445;28;20044;-68
2022/08/07 03:06:35;;;;;;;9.23;5.45;;;13.10;99.90;;;;;;5094980;28;20070;-69
2022/08/07 03:09:08;;;;;;;8.40;5.78;;;13.10;99.90;;;;;;5094329;28;20144;-69
2022/08/07 03:11:36;;;;;;;8.93;6.18;;;13.10;99.90;;;;;;5094711;28;20139;-69
2022/08/07 03:14:04;;;;;;;10.18;6.18;;;13.00;99.90;;;;;;5093909;28;20522;-69
2022/08/07 03:16:31;;;;;;;6.53;4.93;;;13.00;99.90;;;;;;5095854;28;20407;-69
2022/08/07 03:18:57;;;;;;;9.82;5.80;;;13.10;99.90;;;;;;5103049;28;20061;-69
2022/08/07 03:21:24;;;;;;;9.30;5.68;;;13.00;99.90;;;;;;5102282;28;20047;-69
2022/08/07 03:23:54;;;;;;;9.73;5.55;;;13.00;99.90;;;;;;5092223;28;20043;-69
2022/08/07 03:26:24;;;;;;;7.97;5.25;;;12.90;99.90;;;;;;5094526;28;20044;-69
2022/08/07 03:28:50;;;;;;;9.50;5.22;;;12.90;99.90;;;;;;5092968;28;20044;-69
2022/08/07 03:31:19;;;;;;;8.77;5.47;;;12.90;99.90;;;;;;5093931;28;20072;-69
2022/08/07 03:34:01;;;;;;;8.27;6.10;;;12.90;99.90;;;;;;5093418;28;20032;-69
2022/08/07 03:36:29;;;;;;;6.93;4.63;;;12.70;99.90;;;;;;5093886;28;20055;-69
2022/08/07 03:39:00;;;;;;;6.80;4.95;;;12.70;99.90;;;;;;5094161;28;20040;-69
2022/08/07 03:41:28;;;;;;;7.25;5.40;;;12.60;99.90;;;;;;5093859;28;20036;-69
2022/08/07 03:43:55;;;;;;;9.93;5.22;;;12.50;99.90;;;;;;5093754;28;20071;-69
2022/08/07 03:46:22;;;;;;;9.80;5.97;;;12.60;99.90;;;;;;5092941;28;20043;-69
2022/08/07 03:48:49;;;;;;;8.23;5.35;;;12.60;99.90;;;;;;5092583;28;20571;-69
2022/08/07 03:51:15;;;;;;;9.70;5.05;;;12.60;99.90;;;;;;5093258;28;20177;-69
2022/08/07 03:53:41;;;;;;;7.78;5.45;;;12.70;99.90;;;;;;5092560;28;20044;-69
2022/08/07 03:56:09;;;;;;;10.63;6.35;;;12.80;99.90;;;;;;5093989;28;20067;-69
2022/08/07 03:58:35;;;;;;;6.95;5.38;;;12.70;99.90;;;;;;5091067;28;20477;-69
2022/08/07 04:01:03;;;;;;;9.50;5.57;;;12.60;99.90;;;;;;5091563;28;20036;-69
2022/08/07 04:03:28;;;;;;;11.10;5.50;;;12.70;99.90;;;;;;5091588;28;20043;-69
2022/08/07 04:05:54;;;;;;;10.38;5.95;;;12.50;99.90;;;;;;5094168;28;20044;-69
2022/08/07 04:08:20;;;;;;;10.45;6.57;;;12.50;99.90;;;;;;5093963;28;20067;-69
2022/08/07 04:10:47;;;;;;;8.00;5.38;;;12.40;99.90;;;;;;5091373;28;20036;-69
2022/08/07 04:13:14;;;;;;;7.03;5.18;;;12.30;99.90;;;;;;5092951;28;20048;-69
2022/08/07 04:15:40;;;;;;;7.63;5.07;;;12.30;99.90;;;;;;5096633;28;20039;-69
2022/08/07 04:18:06;;;;;;;6.68;4.95;;;12.40;99.90;;;;;;5098434;28;20492;-69
2022/08/07 04:20:32;;;;;;;7.70;5.18;;;12.40;99.90;;;;;;5098617;28;20126;-69
2022/08/07 04:22:58;;;;;;;12.05;5.85;;;12.50;99.90;;;;;;5096459;28;20400;-69
2022/08/07 04:25:25;;;;;;;9.27;5.43;;;12.40;99.90;;;;;;5098111;28;20055;-69
2022/08/07 04:27:51;;;;;;;8.57;5.55;;;12.40;99.90;;;;;;5108128;28;20099;-69
2022/08/07 04:30:17;;;;;;;8.52;6.38;;;12.50;99.90;;;;;;5105576;28;20113;-69
2022/08/07 04:32:44;;;;;;;10.02;5.97;;;12.50;99.90;;;;;;5096367;28;20485;-69
2022/08/07 04:35:09;;;;;;;8.98;5.97;;;12.50;99.90;;;;;;5097057;28;20046;-69
2022/08/07 04:37:35;;;;;;;11.10;6.50;;;12.30;99.90;;;;;;5097564;28;20040;-69
2022/08/07 04:40:03;;;;;;;9.43;6.35;;;12.30;99.90;;;;;;5095762;28;20038;-69
2022/08/07 04:42:30;;;;;;;9.90;7.30;;;12.40;99.90;;;;;;5095171;28;20043;-69
2022/08/07 04:44:59;;;;;;;9.23;5.85;;;12.50;99.90;;;;;;5096995;28;20120;-69
2022/08/07 04:47:33;;;;;;;7.10;4.85;;;12.60;99.90;;;;;;5095581;28;20045;-69
2022/08/07 04:50:06;;;;;;;9.93;6.03;;;12.70;99.90;;;;;;5097808;28;20032;-69
2022/08/07 04:52:41;;;;;;;12.05;6.05;;;12.70;99.90;;;;;;5097019;28;20039;-69
2022/08/07 04:55:33;;;;;;;8.65;5.85;;;12.70;99.90;;;;;;5095380;28;20128;-69
2022/08/07 04:58:19;;;;;;;9.23;6.43;;;12.50;99.90;;;;;;5096844;28;20042;-69
2022/08/07 05:00:57;;;;;;;10.10;6.38;;;12.40;99.90;;;;;;5095459;28;20032;-69
2022/08/07 05:03:49;;;;;;;8.45;5.72;;;12.60;99.90;;;;;;5096970;28;20109;-69
2022/08/07 05:06:24;;;;;;;7.50;5.30;;;12.70;99.90;;;;;;5080761;28;20044;-69
2022/08/07 05:08:55;;;;;;;8.13;5.97;;;12.70;99.90;;;;;;5097644;28;20081;-69
2022/08/07 05:11:30;;;;;;;13.45;6.90;;;12.80;99.90;;;;;;5098047;28;20051;-69
2022/08/07 05:14:05;;;;;;;10.27;6.78;;;12.90;99.90;;;;;;5097922;28;20036;-69
2022/08/07 05:16:33;;;;;;;11.10;7.10;;;13.00;99.90;;;;;;5097954;28;20569;-69
2022/08/07 05:19:03;;;;;;;13.00;6.68;;;13.10;99.90;;;;;;5097547;28;20044;-69
2022/08/07 05:21:31;;;;;;;14.15;7.82;;;13.30;99.90;;;;;;5097347;28;20036;-69
2022/08/07 05:24:00;;;;;;;13.60;8.02;;;13.40;99.90;;;;;;5096540;28;20066;-69
2022/08/07 05:26:30;;;;;;;11.50;7.85;;;13.50;99.90;;;;;;5096582;28;20079;-69
2022/08/07 05:28:59;;;;;;;13.18;8.23;;;13.60;99.90;;;;;;5096909;28;20056;-69
2022/08/07 05:31:28;;;;;;;14.70;7.88;;;13.70;99.90;;;;;;5095770;28;20075;-69
2022/08/07 05:33:55;;;;;;;13.75;7.45;;;14.00;99.90;;;;;;5095956;28;20088;-69
2022/08/07 05:36:22;;;;;;;10.90;7.75;;;14.10;99.90;;;;;;5106116;28;20062;-69
2022/08/07 05:38:49;;;;;;;11.18;7.88;;;14.20;99.90;;;;;;5106491;28;20036;-69
2022/08/07 05:41:15;;;;;;;14.68;8.63;;;14.20;99.90;;;;;;5096705;28;20396;-69
2022/08/07 05:43:42;;;;;;;10.98;8.15;;;14.30;99.90;;;;;;5095920;28;20046;-69
2022/08/07 05:46:09;;;;;;;13.23;8.05;;;14.50;99.90;;;;;;5096490;28;20048;-69
2022/08/07 05:48:36;;;;;;;17.35;10.07;;;14.60;99.90;;;;;;5096833;28;20040;-69
2022/08/07 05:51:03;;;;;;;14.23;8.57;;;14.70;99.90;;;;;;5094898;28;20043;-69
2022/08/07 05:53:29;;;;;;;15.25;8.32;;;14.80;99.90;;;;;;5093818;28;20150;-69
2022/08/07 05:55:56;;;;;;;12.80;8.55;;;15.10;99.90;;;;;;5094060;28;20137;-69
2022/08/07 05:58:24;;;;;;;15.60;9.20;;;15.20;99.90;;;;;;5094190;28;20036;-69
2022/08/07 06:00:51;;;;;;;12.90;9.20;;;15.40;99.90;;;;;;5093582;28;20044;-69
2022/08/07 06:03:20;;;;;;;15.30;9.93;;;15.60;99.90;;;;;;5092362;28;20090;-69
2022/08/07 06:05:46;;;;;;;14.70;8.82;;;15.60;99.90;;;;;;5091471;28;20119;-69
2022/08/07 06:08:13;;;;;;;19.05;10.32;;;15.70;99.90;;;;;;5093197;28;20072;-67
2022/08/07 06:10:39;;;;;;;18.13;10.23;;;16.00;99.90;;;;;;5091693;28;20081;-68
2022/08/07 06:13:04;;;;;;;18.63;10.18;;;15.90;99.90;;;;;;5093554;28;20082;-68
2022/08/07 06:15:33;;;;;;;14.82;9.27;;;16.00;99.90;;;;;;5094105;28;20381;-68
2022/08/07 06:17:59;;;;;;;15.63;9.50;;;16.20;99.90;;;;;;5096121;28;20057;-68
2022/08/07 06:20:25;;;;;;;14.88;9.07;;;16.30;99.90;;;;;;5094193;28;20044;-67
2022/08/07 06:22:52;;;;;;;19.48;11.13;;;16.40;99.90;;;;;;5094453;28;20110;-68
2022/08/07 06:25:18;;;;;;;16.35;10.27;;;16.60;99.90;;;;;;5094937;28;20074;-69
2022/08/07 06:27:44;;;;;;;12.10;8.18;;;16.70;99.90;;;;;;5095561;28;20431;-69
2022/08/07 06:30:10;;;;;;;20.90;10.27;;;16.80;99.90;;;;;;5095623;28;20184;-68
2022/08/07 06:32:35;;;;;;;18.17;11.10;;;16.90;99.90;;;;;;5093997;28;20036;-69
2022/08/07 06:35:01;;;;;;;15.73;10.23;;;16.90;99.90;;;;;;5093214;28;20649;-69
2022/08/07 06:37:27;;;;;;;13.88;9.07;;;17.10;99.90;;;;;;5096862;28;20050;-68
2022/08/07 06:39:52;;;;;;;15.20;9.75;;;17.20;99.90;;;;;;5100079;28;20036;-67
2022/08/07 06:42:29;;;;;;;15.52;9.07;;;17.20;99.90;;;;;;5098354;28;20028;-68
2022/08/07 06:44:56;;;;;;;15.88;9.82;;;17.30;99.90;;;;;;5106100;28;20036;-68
2022/08/07 06:47:23;;;;;;;17.00;10.05;;;17.30;99.90;;;;;;5087948;28;20047;-67
2022/08/07 06:49:48;;;;;;;14.77;9.63;;;17.40;99.90;;;;;;5053295;28;20064;-67
2022/08/07 06:52:15;;;;;;;14.43;9.38;;;17.40;99.90;;;;;;5051261;28;20119;-68
2022/08/07 06:54:43;;;;;;;14.65;9.18;;;17.50;99.90;;;;;;5052391;28;20091;-68
2022/08/07 06:57:10;;;;;;;15.65;9.93;;;17.50;99.90;;;;;;5053152;28;20037;-68
2022/08/07 06:59:39;;;;;;;15.30;9.30;;;17.60;99.90;;;;;;5052140;28;20083;-67
2022/08/07 07:02:12;;;;;;;15.18;8.25;;;17.70;99.90;;;;;;5051040;28;20174;-67
2022/08/07 07:04:38;;;;;;;14.60;8.43;;;17.80;99.90;;;;;;5052498;28;20041;-68
2022/08/07 07:07:06;;;;;;;14.55;8.52;;;17.90;99.90;;;;;;5035203;28;20107;-68
2022/08/07 07:09:32;;;;;;;11.55;7.55;;;18.00;99.90;;;;;;5052595;28;20072;-68
2022/08/07 07:12:07;;;;;;;14.00;8.55;;;18.00;99.90;;;;;;5051487;28;20469;-68
2022/08/07 07:15:05;;;;;;;12.50;7.57;;;18.00;99.90;;;;;;5052595;28;20059;-67
2022/08/07 07:18:07;;;;;;;11.18;8.00;;;18.00;99.90;;;;;;5042798;28;20044;-67
2022/08/07 07:20:36;;;;;;;11.68;7.53;;;18.10;99.90;;;;;;5051075;28;20037;-68
2022/08/07 07:23:04;;;;;;;14.15;8.38;;;18.30;99.90;;;;;;5051667;28;20509;-68
2022/08/07 07:25:30;;;;;;;16.35;8.38;;;18.20;99.90;;;;;;5051220;28;20045;-68
2022/08/07 07:28:01;;;;;;;10.77;7.63;;;18.10;99.90;;;;;;5052847;28;20040;-68
2022/08/07 07:30:32;;;;;;;13.30;7.87;;;18.20;99.90;;;;;;5050657;28;20051;-68
2022/08/07 07:33:00;;;;;;;12.32;7.70;;;18.30;99.90;;;;;;5050748;28;20041;-68
2022/08/07 07:35:27;;;;;;;11.57;6.50;;;18.30;99.90;;;;;;5049980;28;20033;-68
2022/08/07 07:37:54;;;;;;;13.27;7.15;;;18.30;99.90;;;;;;5051623;28;20037;-67
2022/08/07 07:40:21;;;;;;;14.45;8.05;;;18.40;99.90;;;;;;5051368;28;20033;-68
2022/08/07 07:42:51;;;;;;;13.40;7.78;;;18.40;99.90;;;;;;5048786;28;20056;-67
2022/08/07 07:45:20;;;;;;;9.55;7.18;;;18.60;99.90;;;;;;5050396;28;20044;-67
2022/08/07 07:47:48;;;;;;;15.32;7.47;;;18.70;99.90;;;;;;5050396;28;20041;-67
2022/08/07 07:50:16;;;;;;;10.50;7.35;;;18.80;99.90;;;;;;5050409;28;20040;-67
2022/08/07 07:52:44;;;;;;;11.65;6.63;;;18.80;99.90;;;;;;5049796;28;20085;-67
2022/08/07 07:55:11;;;;;;;11.18;6.63;;;18.90;99.90;;;;;;5055766;28;20033;-67
2022/08/07 07:57:39;;;;;;;10.32;7.45;;;18.80;99.90;;;;;;5052253;28;20462;-68
2022/08/07 08:00:06;;;;;;;13.55;6.57;;;18.70;99.90;;;;;;5051323;28;20144;-68
2022/08/07 08:02:34;;;;;;;9.85;6.45;;;18.70;99.90;;;;;;5050188;28;20045;-68
2022/08/07 08:05:05;;;;;;;8.75;6.55;;;18.80;99.90;;;;;;5051891;28;20041;-67
2022/08/07 08:07:32;;;;;;;9.43;7.45;;;18.70;99.90;;;;;;5051014;28;20060;-68
2022/08/07 08:10:00;;;;;;;7.78;6.07;;;18.70;99.90;;;;;;5051152;28;20033;-68
2022/08/07 08:12:25;;;;;;;12.52;7.13;;;18.80;99.90;;;;;;5051240;28;20041;-69
2022/08/07 08:14:51;;;;;;;12.38;7.13;;;18.70;99.90;;;;;;5053360;28;20152;-69
2022/08/07 08:17:19;;;;;;;11.02;6.60;;;18.80;99.90;;;;;;5051832;28;20045;-69
2022/08/07 08:19:46;;;;;;;9.73;5.80;;;18.80;99.90;;;;;;5053398;28;20047;-69
2022/08/07 08:27:47;;;;;;;8.93;5.80;;;19.00;99.90;;;;;;5053700;28;20052;-69
2022/08/07 08:30:13;;;;;;;9.70;5.90;;;19.20;99.90;;;;;;5053531;28;20060;-68
2022/08/07 08:33:00;;;;;;;9.80;5.88;;;19.50;99.90;;;;;;5052878;28;20052;-69
2022/08/07 08:35:28;;;;;;;11.27;6.97;;;19.50;99.90;;;;;;5062723;28;20032;-69
2022/08/07 08:37:59;;;;;;;12.60;6.07;;;19.40;99.90;;;;;;5070415;28;20028;-70
2022/08/07 08:40:36;;;;;;;8.88;6.75;;;19.40;99.90;;;;;;5070577;28;20059;-70
2022/08/07 08:43:10;;;;;;;8.75;6.53;;;19.40;99.90;;;;;;5071424;28;20420;-69
2022/08/07 08:45:40;;;;;;;8.90;5.95;;;19.50;99.90;;;;;;5070084;28;20413;-70
2022/08/07 08:48:16;;;;;;;7.50;5.85;;;19.60;99.90;;;;;;5068480;28;20055;-68
2022/08/07 08:50:59;;;;;;;9.38;5.80;;;19.50;99.90;;;;;;5071148;28;20056;-69
2022/08/07 08:53:33;;;;;;;10.10;5.95;;;19.70;99.90;;;;;;5071032;28;20032;-68
2022/08/07 08:56:06;;;;;;;11.52;6.28;;;19.80;99.90;;;;;;5063037;28;20439;-68
2022/08/07 08:58:41;;;;;;;10.65;5.60;;;20.00;99.90;;;;;;5057881;28;20580;-68
2022/08/07 09:01:12;;;;;;;7.20;5.15;;;20.10;99.90;;;;;;5075528;28;20063;-68
2022/08/07 09:03:49;;;;;;;6.75;4.90;;;20.10;99.90;;;;;;5091701;28;20063;-68
2022/08/07 09:06:37;;;;;;;5.78;4.53;;;20.10;99.90;;;;;;5075773;28;20041;-68
2022/08/07 09:09:20;;;;;;;10.35;4.88;;;20.20;99.90;;;;;;5063724;28;20055;-68
2022/08/07 09:12:35;;;;;;;8.68;4.78;;;20.30;99.90;;;;;;5053459;28;20041;-68
2022/08/07 09:15:29;;;;;;;10.38;5.05;;;20.30;99.90;;;;;;5027090;28;20049;-68
2022/08/07 09:18:14;;;;;;;9.75;4.57;;;20.20;99.90;;;;;;5054175;28;20033;-68
2022/08/07 09:20:54;;;;;;;8.65;4.85;;;20.30;99.90;;;;;;5052901;28;20063;-68
2022/08/07 09:23:32;;;;;;;6.85;4.88;;;20.50;99.90;;;;;;5052655;28;20468;-68
2022/08/07 09:26:15;;;;;;;7.68;4.50;;;20.60;99.90;;;;;;5040578;28;20080;-69
2022/08/07 09:28:45;;;;;;;6.95;4.07;;;20.80;99.90;;;;;;5054786;28;20733;-69
2022/08/07 09:31:54;;;;;;;7.80;4.63;;;20.80;99.90;;;;;;5068093;28;20465;-70
2022/08/07 09:34:26;;;;;;;8.40;5.00;;;20.90;99.90;;;;;;5028115;28;20076;-69
2022/08/07 09:37:03;;;;;;;5.85;4.50;;;21.00;99.90;;;;;;5057422;28;20135;-69
2022/08/07 09:39:54;;;;;;;5.88;4.45;;;20.80;99.90;;;;;;5073298;28;20040;-69
2022/08/07 09:42:40;;;;;;;5.40;4.70;;;20.80;99.90;;;;;;5072689;28;20051;-68
2022/08/07 09:45:33;;;;;;;5.50;4.47;;;21.00;99.90;;;;;;5071827;28;20048;-68
2022/08/07 09:48:29;;;;;;;5.60;4.05;;;21.00;99.90;;;;;;5066596;28;20127;-70
2022/08/07 09:51:04;;;;;;;5.38;4.43;;;20.70;99.90;;;;;;5066255;28;20037;-70
2022/08/07 09:53:37;;;;;;;8.48;4.65;;;20.60;99.90;;;;;;5064855;28;20040;-70
2022/08/07 09:56:40;;;;;;;7.88;4.15;;;20.60;99.90;;;;;;5067565;28;20044;-69
2022/08/07 09:59:09;;;;;;;8.68;4.95;;;20.80;99.90;;;;;;5069384;28;20041;-69
2022/08/07 10:02:03;;;;;;;5.28;3.60;;;21.00;99.90;;;;;;5068252;28;20036;-70
2022/08/07 10:04:44;;;;;;;5.82;3.03;;;20.90;99.90;;;;;;5057873;28;20056;-70
2022/08/07 10:07:58;;;;;;;8.73;3.58;;;21.10;99.90;;;;;;5066165;28;20095;-68
2022/08/07 10:10:39;;;;;;;5.78;3.20;;;21.20;99.90;;;;;;5028243;28;20043;-69
2022/08/07 10:13:25;;;;;;;4.35;2.83;;;21.20;99.90;;;;;;5078528;28;20041;-71
2022/08/07 10:16:06;;;;;;;5.07;2.83;;;21.30;99.40;;;;;;5080256;28;20430;-71
2022/08/07 10:18:51;;;;;;;6.83;3.03;;;21.40;99.90;;;;;;5071953;28;20139;-71
2022/08/07 10:21:49;;;;;;;6.22;3.28;;;21.50;99.90;;;;;;5070391;28;20132;-71
2022/08/07 10:24:18;;;;;;;6.75;3.13;;;21.50;99.90;;;;;;5070168;28;20044;-71
2022/08/07 10:27:16;;;;;;;6.35;3.05;;;21.60;99.90;;;;;;5072070;28;20036;-72
2022/08/07 10:30:05;;;;;;;3.22;2.33;;;21.70;99.70;;;;;;5071252;28;20041;-73
2022/08/07 10:32:52;;;;;;;4.95;2.63;;;21.80;99.10;;;;;;5061496;28;20047;-72
2022/08/07 10:35:52;;;;;;;2.83;2.53;;;21.90;98.80;;;;;;5050755;28;20123;-72
2022/08/07 10:38:19;;;;;;;5.63;2.47;;;21.90;98.70;;;;;;5050831;28;20124;-72
2022/08/07 10:40:54;;;;;;;3.88;2.47;;;21.80;99.20;;;;;;5050844;28;20093;-72
2022/08/07 10:43:29;;;;;;;3.70;3.00;;;21.90;98.30;;;;;;5050329;28;20088;-72
2022/08/07 10:45:59;;;;;;;3.70;2.80;;;22.00;98.90;;;;;;5050262;28;20041;-72
2022/08/07 10:48:39;;;;;;;3.85;2.60;;;22.10;98.90;;;;;;5051838;28;20159;-72
2022/08/07 10:51:16;;;;;;;4.40;2.60;;;22.20;98.00;;;;;;5057305;28;20430;-73
2022/08/07 10:54:00;;;;;;;5.75;2.95;;;22.20;98.10;;;;;;5054676;28;20127;-73
2022/08/07 10:56:47;;;;;;;4.15;3.40;;;22.20;98.40;;;;;;5051376;28;20045;-74
2022/08/07 11:00:04;;;;;;;3.38;2.92;;;22.10;98.00;;;;;;5052702;28;20219;-74
2022/08/07 11:02:36;;;;;;;3.78;2.88;;;22.30;98.60;;;;;;5039651;28;20045;-73
2022/08/07 11:05:30;;;;;;;5.75;3.10;;;22.30;97.70;;;;;;5059416;28;20553;-74
2022/08/07 11:08:38;;;;;;;3.10;2.80;;;22.40;96.50;;;;;;5053171;28;20040;-74
2022/08/07 11:11:10;;;;;;;3.92;2.60;;;22.40;96.70;;;;;;5048229;28;20058;-73
2022/08/07 11:13:41;;;;;;;7.38;2.83;;;22.40;97.70;;;;;;5071001;28;20496;-70
2022/08/07 11:16:22;;;;;;;3.33;2.80;;;22.50;97.50;;;;;;5069202;28;20036;-69
2022/08/07 11:19:04;;;;;;;4.60;2.97;;;22.50;97.30;;;;;;5075767;28;20040;-69
2022/08/07 11:21:37;;;;;;;5.25;2.88;;;22.40;97.20;;;;;;5084326;28;20060;-69
2022/08/07 11:24:14;;;;;;;6.07;3.10;;;22.40;97.40;;;;;;5069642;28;20143;-68
2022/08/07 11:26:43;;;;;;;5.28;2.90;;;22.40;96.80;;;;;;5069025;28;20527;-68
2022/08/07 11:29:14;;;;;;;5.50;3.05;;;22.40;97.30;;;;;;5070821;28;20093;-68
2022/08/07 11:31:54;;;;;;;6.82;3.15;;;22.40;97.60;;;;;;5069396;28;20071;-69
2022/08/07 11:34:35;;;;;;;3.05;2.55;;;22.40;97.20;;;;;;5069804;28;20442;-68
2022/08/07 11:37:30;;;;;;;3.40;2.53;;;22.40;96.80;;;;;;5068745;28;20074;-68
2022/08/07 11:40:50;;;;;;;6.75;2.83;;;22.30;96.70;;;;;;5070223;28;20048;-68
2022/08/07 11:43:24;;;;;;;4.88;2.80;;;22.30;96.50;;;;;;5047339;28;20096;-69
2022/08/07 11:45:58;;;;;;;5.90;2.60;;;22.40;97.40;;;;;;5047595;28;20188;-68
2022/08/07 11:48:40;;;;;;;5.88;2.60;;;22.50;97.10;;;;;;5047419;28;20441;-68
2022/08/07 11:51:27;;;;;;;3.45;2.50;;;22.60;96.80;;;;;;5047676;28;20076;-68
2022/08/07 11:54:09;;;;;;;2.88;2.25;;;22.60;95.40;;;;;;5047155;28;20133;-68
2022/08/07 11:56:52;;;;;;;4.07;2.60;;;22.70;95.70;;;;;;5047527;28;20083;-68
2022/08/07 11:59:42;;;;;;;5.38;2.30;;;22.70;96.00;;;;;;5030801;28;20059;-68
2022/08/07 12:02:34;;;;;;;3.92;2.63;;;22.70;96.20;;;;;;5047230;28;20468;-68
2022/08/07 12:05:39;;;;;;;3.67;2.30;;;22.60;95.90;;;;;;5047422;28;20049;-68
2022/08/07 12:08:13;;;;;;;3.65;2.40;;;22.50;95.50;;;;;;5030725;28;20079;-68
2022/08/07 12:10:48;;;;;;;3.38;2.33;;;22.40;96.20;;;;;;5047198;28;20044;-68
2022/08/07 12:13:26;;;;;;;5.32;2.35;;;22.40;95.60;;;;;;5046857;28;20518;-68
2022/08/07 12:15:56;;;;;;;6.07;2.20;;;22.40;95.50;;;;;;5030409;28;20041;-68
2022/08/07 12:18:54;;;;;;;4.75;2.30;;;22.50;96.50;;;;;;5056825;28;20508;-68
2022/08/07 12:21:27;;;;;;;3.10;2.15;;;22.70;96.00;;;;;;5069478;28;20521;-68
2022/08/07 12:24:13;;;;;;;2.30;1.52;;;22.70;95.90;;;;;;5069473;28;20079;-68
2022/08/07 12:26:52;;;;;;;4.47;2.00;;;22.80;96.00;;;;;;5070742;28;20040;-68
2022/08/07 12:29:34;;;;;;;5.25;2.17;;;22.80;95.70;;;;;;5082812;28;20080;-68
2022/08/07 12:32:19;;;;;;;2.53;2.00;;;22.80;94.90;;;;;;5073672;28;20033;-68
2022/08/07 12:34:47;;;;;;;2.50;1.75;;;22.80;95.00;;;;;;5070510;28;20532;-68
2022/08/07 12:37:16;;;;;;;4.05;2.00;;;22.90;95.50;;;;;;5073650;28;20044;-68
2022/08/07 12:39:45;;;;;;;3.40;1.70;;;22.90;95.10;;;;;;5073888;28;20083;-69
2022/08/07 12:42:13;;;;;;;3.67;1.80;;;22.90;95.00;;;;;;5073454;28;20040;-70
2022/08/07 12:44:42;;;;;;;3.00;1.88;;;22.70;93.30;;;;;;5073498;28;20451;-69
2022/08/07 12:47:33;;;;;;;1.90;1.70;;;22.70;94.30;;;;;;5071890;28;20139;-69
2022/08/07 12:50:27;;;;;;;2.37;1.60;;;22.70;93.90;;;;;;5071968;28;20135;-69
2022/08/07 12:53:02;;;;;;;2.40;1.80;;;22.70;93.60;;;;;;5072819;28;20044;-68
2022/08/07 12:55:39;;;;;;;2.78;1.50;;;22.70;93.60;;;;;;5073161;28;20054;-68
2022/08/07 12:58:06;;;;;;;1.73;1.35;;;22.80;93.80;;;;;;5071568;28;20032;-67
2022/08/07 13:00:59;;;;;;;2.13;1.30;;;23.00;93.20;;;;;;5072877;28;20032;-68
2022/08/07 13:03:43;;;;;;;3.35;1.70;;;22.80;91.60;;;;;;5072788;28;20043;-68
2022/08/07 13:06:37;;;;;;;3.55;1.48;;;22.60;91.50;;;;;;5071707;28;20048;-68
2022/08/07 13:09:25;;;;;;;4.85;1.35;;;22.80;91.70;;;;;;5062541;28;20109;-69
2022/08/07 13:12:10;;;;;;;2.63;1.10;;;22.90;91.90;;;;;;5073035;28;20529;-69
2022/08/07 13:14:36;;;;;;;1.10;1.00;;;23.10;91.90;;;;;;5072612;28;20500;-69
2022/08/07 13:17:14;;;;;;;1.67;1.25;;;23.20;91.70;;;;;;5072870;28;20040;-68